sensor_id;sensor_type;location;lat;lon;timestamp;pressure;altitude;pressure_sealevel;temperature;humidity
39265;BME280;42646;51.910;7.724;2023-07-13T00:01:14;100819.63;;;16.49;87.89
39265;BME280;42646;51.910;7.724;2023-07-13T00:03:42;100820.94;;;16.53;88.20
39265;BME280;42646;51.910;7.724;2023-07-13T00:06:10;100814.56;;;16.54;88.00
39265;BME280;42646;51.910;7.724;2023-07-13T00:08:39;100810.72;;;16.56;87.82
39265;BME280;42646;51.910;7.724;2023-07-13T00:11:06;100821.28;;;16.58;87.36
39265;BME280;42646;51.910;7.724;2023-07-13T00:13:34;100816.56;;;16.60;86.67
39265;BME280;42646;51.910;7.724;2023-07-13T00:16:08;100820.25;;;16.59;86.13
39265;BME280;42646;51.910;7.724;2023-07-13T00:18:37;100829.84;;;16.62;85.92
39265;BME280;42646;51.910;7.724;2023-07-13T00:21:05;100827.97;;;16.62;86.08
39265;BME280;42646;51.910;7.724;2023-07-13T00:23:33;100828.81;;;16.63;85.49
39265;BME280;42646;51.910;7.724;2023-07-13T00:26:02;100821.59;;;16.63;85.65
39265;BME280;42646;51.910;7.724;2023-07-13T00:28:30;100828.81;;;16.63;85.63
39265;BME280;42646;51.910;7.724;2023-07-13T00:30:58;100825.13;;;16.64;85.73
39265;BME280;42646;51.910;7.724;2023-07-13T00:33:29;100819.75;;;16.64;86.26
39265;BME280;42646;51.910;7.724;2023-07-13T00:35:57;100819.09;;;16.62;86.75
39265;BME280;42646;51.910;7.724;2023-07-13T00:38:26;100828.31;;;16.59;87.03
39265;BME280;42646;51.910;7.724;2023-07-13T00:40:54;100835.91;;;16.55;87.29
39265;BME280;42646;51.910;7.724;2023-07-13T00:43:27;100830.19;;;16.50;87.46
39265;BME280;42646;51.910;7.724;2023-07-13T00:46:23;100828.84;;;16.46;87.87
39265;BME280;42646;51.910;7.724;2023-07-13T00:48:55;100836.44;;;16.43;87.89
39265;BME280;42646;51.910;7.724;2023-07-13T00:51:28;100830.75;;;16.38;87.51
39265;BME280;42646;51.910;7.724;2023-07-13T00:54:03;100840.97;;;16.34;87.74
39265;BME280;42646;51.910;7.724;2023-07-13T00:56:34;100840.50;;;16.31;87.76
39265;BME280;42646;51.910;7.724;2023-07-13T00:59:06;100840.81;;;16.27;87.63
39265;BME280;42646;51.910;7.724;2023-07-13T01:01:35;100834.94;;;16.24;87.73
39265;BME280;42646;51.910;7.724;2023-07-13T01:04:05;100834.47;;;16.20;87.76
39265;BME280;42646;51.910;7.724;2023-07-13T01:06:36;100834.78;;;16.17;87.57
39265;BME280;42646;51.910;7.724;2023-07-13T01:09:05;100831.78;;;16.12;87.90
39265;BME280;42646;51.910;7.724;2023-07-13T01:11:34;100828.44;;;16.10;88.10
39265;BME280;42646;51.910;7.724;2023-07-13T01:14:02;100830.78;;;16.05;88.36
39265;BME280;42646;51.910;7.724;2023-07-13T01:16:32;100838.50;;;16.00;88.48
39265;BME280;42646;51.910;7.724;2023-07-13T01:19:07;100835.50;;;15.95;89.07
39265;BME280;42646;51.910;7.724;2023-07-13T01:21:39;100834.34;;;15.89;89.28
39265;BME280;42646;51.910;7.724;2023-07-13T01:24:10;100829.66;;;15.83;89.53
39265;BME280;42646;51.910;7.724;2023-07-13T01:26:38;100827.13;;;15.73;90.13
39265;BME280;42646;51.910;7.724;2023-07-13T01:29:10;100822.59;;;15.66;90.59
39265;BME280;42646;51.910;7.724;2023-07-13T01:31:38;100824.78;;;15.62;90.93
39265;BME280;42646;51.910;7.724;2023-07-13T01:34:06;100817.19;;;15.58;90.67
39265;BME280;42646;51.910;7.724;2023-07-13T01:36:34;100820.38;;;15.53;90.31
39265;BME280;42646;51.910;7.724;2023-07-13T01:39:07;100816.38;;;15.49;90.28
39265;BME280;42646;51.910;7.724;2023-07-13T01:41:35;100825.06;;;15.43;90.88
39265;BME280;42646;51.910;7.724;2023-07-13T01:44:03;100813.34;;;15.36;91.60
39265;BME280;42646;51.910;7.724;2023-07-13T01:46:31;100823.84;;;15.29;91.94
39265;BME280;42646;51.910;7.724;2023-07-13T01:49:00;100823.38;;;15.26;92.21
39265;BME280;42646;51.910;7.724;2023-07-13T01:51:30;100831.06;;;15.20;92.37
39265;BME280;42646;51.910;7.724;2023-07-13T01:53:58;100835.06;;;15.16;92.97
39265;BME280;42646;51.910;7.724;2023-07-13T01:56:27;100833.03;;;15.10;93.52
39265;BME280;42646;51.910;7.724;2023-07-13T01:58:56;100836.19;;;15.06;93.73
39265;BME280;42646;51.910;7.724;2023-07-13T02:01:24;100826.00;;;15.01;93.53
39265;BME280;42646;51.910;7.724;2023-07-13T02:03:54;100834.34;;;14.98;93.54
39265;BME280;42646;51.910;7.724;2023-07-13T02:06:22;100837.50;;;14.93;93.28
39265;BME280;42646;51.910;7.724;2023-07-13T02:09:15;100845.88;;;14.90;93.50
39265;BME280;42646;51.910;7.724;2023-07-13T02:11:45;100843.50;;;14.87;93.41
39265;BME280;42646;51.910;7.724;2023-07-13T02:14:12;100846.81;;;14.81;93.35
39265;BME280;42646;51.910;7.724;2023-07-13T02:16:41;100839.13;;;14.78;92.95
39265;BME280;42646;51.910;7.724;2023-07-13T02:19:09;100845.50;;;14.77;93.09
39265;BME280;42646;51.910;7.724;2023-07-13T02:21:39;100846.63;;;14.75;93.13
39265;BME280;42646;51.910;7.724;2023-07-13T02:24:07;100850.66;;;14.71;93.37
39265;BME280;42646;51.910;7.724;2023-07-13T02:26:39;100843.75;;;14.68;93.80
39265;BME280;42646;51.910;7.724;2023-07-13T02:29:08;100843.94;;;14.66;94.35
39265;BME280;42646;51.910;7.724;2023-07-13T02:31:37;100841.56;;;14.63;94.77
39265;BME280;42646;51.910;7.724;2023-07-13T02:34:05;100842.91;;;14.59;94.84
39265;BME280;42646;51.910;7.724;2023-07-13T02:36:35;100843.03;;;14.58;94.85
39265;BME280;42646;51.910;7.724;2023-07-13T02:39:06;100833.66;;;14.54;95.17
39265;BME280;42646;51.910;7.724;2023-07-13T02:41:35;100838.47;;;14.50;95.17
39265;BME280;42646;51.910;7.724;2023-07-13T02:44:03;100828.09;;;14.47;95.64
39265;BME280;42646;51.910;7.724;2023-07-13T02:46:34;100830.88;;;14.46;95.96
39265;BME280;42646;51.910;7.724;2023-07-13T02:49:29;100830.38;;;14.42;95.54
39265;BME280;42646;51.910;7.724;2023-07-13T02:51:58;100830.84;;;14.37;95.88
39265;BME280;42646;51.910;7.724;2023-07-13T02:54:26;100826.50;;;14.36;96.22
39265;BME280;42646;51.910;7.724;2023-07-13T02:56:53;100831.16;;;14.34;96.47
39265;BME280;42646;51.910;7.724;2023-07-13T02:59:21;100834.00;;;14.33;96.52
39265;BME280;42646;51.910;7.724;2023-07-13T03:01:50;100840.53;;;14.30;96.56
39265;BME280;42646;51.910;7.724;2023-07-13T03:04:18;100849.69;;;14.28;96.80
39265;BME280;42646;51.910;7.724;2023-07-13T03:06:46;100852.69;;;14.25;96.89
39265;BME280;42646;51.910;7.724;2023-07-13T03:09:14;100852.00;;;14.23;96.82
39265;BME280;42646;51.910;7.724;2023-07-13T03:11:48;100848.81;;;14.19;96.54
39265;BME280;42646;51.910;7.724;2023-07-13T03:14:22;100849.09;;;14.16;96.54
39265;BME280;42646;51.910;7.724;2023-07-13T03:16:54;100847.59;;;14.13;96.49
39265;BME280;42646;51.910;7.724;2023-07-13T03:19:25;100850.44;;;14.12;96.14
39265;BME280;42646;51.910;7.724;2023-07-13T03:21:55;100848.72;;;14.11;95.75
39265;BME280;42646;51.910;7.724;2023-07-13T03:24:23;100856.09;;;14.09;95.57
39265;BME280;42646;51.910;7.724;2023-07-13T03:26:52;100859.75;;;14.08;95.85
39265;BME280;42646;51.910;7.724;2023-07-13T03:29:20;100861.59;;;14.07;95.61
39265;BME280;42646;51.910;7.724;2023-07-13T03:31:50;100855.41;;;14.07;95.36
39265;BME280;42646;51.910;7.724;2023-07-13T03:34:22;100854.72;;;14.05;95.24
39265;BME280;42646;51.910;7.724;2023-07-13T03:36:53;100862.59;;;14.06;95.25
39265;BME280;42646;51.910;7.724;2023-07-13T03:39:21;100860.22;;;14.03;94.81
39265;BME280;42646;51.910;7.724;2023-07-13T03:41:53;100861.38;;;14.01;94.65
39265;BME280;42646;51.910;7.724;2023-07-13T03:44:22;100865.91;;;14.00;94.79
39265;BME280;42646;51.910;7.724;2023-07-13T03:46:53;100878.44;;;14.00;94.51
39265;BME280;42646;51.910;7.724;2023-07-13T03:49:25;100873.22;;;13.98;94.46
39265;BME280;42646;51.910;7.724;2023-07-13T03:51:53;100878.56;;;13.98;94.26
39265;BME280;42646;51.910;7.724;2023-07-13T03:54:22;100884.91;;;13.97;94.03
39265;BME280;42646;51.910;7.724;2023-07-13T03:56:50;100870.88;;;13.95;94.27
39265;BME280;42646;51.910;7.724;2023-07-13T03:59:20;100875.38;;;13.95;94.37
39265;BME280;42646;51.910;7.724;2023-07-13T04:01:48;100875.22;;;13.96;94.44
39265;BME280;42646;51.910;7.724;2023-07-13T04:04:16;100877.72;;;13.98;94.30
39265;BME280;42646;51.910;7.724;2023-07-13T04:06:45;100874.06;;;13.99;94.47
39265;BME280;42646;51.910;7.724;2023-07-13T04:09:17;100885.13;;;14.04;94.82
39265;BME280;42646;51.910;7.724;2023-07-13T04:12:35;100880.63;;;14.04;95.53
39265;BME280;42646;51.910;7.724;2023-07-13T04:15:08;100887.69;;;14.05;95.94
39265;BME280;42646;51.910;7.724;2023-07-13T04:17:36;100884.84;;;14.07;96.18
39265;BME280;42646;51.910;7.724;2023-07-13T04:20:29;100887.19;;;14.10;96.33
39265;BME280;42646;51.910;7.724;2023-07-13T04:23:02;100888.56;;;14.14;96.00
39265;BME280;42646;51.910;7.724;2023-07-13T04:25:32;100885.91;;;14.14;95.76
39265;BME280;42646;51.910;7.724;2023-07-13T04:28:00;100885.56;;;14.17;96.04
39265;BME280;42646;51.910;7.724;2023-07-13T04:30:29;100887.13;;;14.20;95.62
39265;BME280;42646;51.910;7.724;2023-07-13T04:32:57;100892.13;;;14.23;95.51
39265;BME280;42646;51.910;7.724;2023-07-13T04:35:25;100903.38;;;14.26;95.23
39265;BME280;42646;51.910;7.724;2023-07-13T04:37:53;100894.19;;;14.29;95.29
39265;BME280;42646;51.910;7.724;2023-07-13T04:40:47;100903.41;;;14.34;95.12
39265;BME280;42646;51.910;7.724;2023-07-13T04:43:15;100897.59;;;14.39;95.26
39265;BME280;42646;51.910;7.724;2023-07-13T04:45:44;100903.16;;;14.46;95.19
39265;BME280;42646;51.910;7.724;2023-07-13T04:48:12;100897.38;;;14.50;95.50
39265;BME280;42646;51.910;7.724;2023-07-13T04:50:40;100888.88;;;14.55;94.91
39265;BME280;42646;51.910;7.724;2023-07-13T04:53:08;100898.28;;;14.59;94.86
39265;BME280;42646;51.910;7.724;2023-07-13T04:55:41;100895.94;;;14.64;94.74
39265;BME280;42646;51.910;7.724;2023-07-13T04:58:35;100897.31;;;14.68;94.25
39265;BME280;42646;51.910;7.724;2023-07-13T05:01:05;100891.31;;;14.74;94.55
39265;BME280;42646;51.910;7.724;2023-07-13T05:03:34;100903.25;;;14.80;94.38
39265;BME280;42646;51.910;7.724;2023-07-13T05:06:06;100910.63;;;14.86;94.28
39265;BME280;42646;51.910;7.724;2023-07-13T05:08:36;100911.84;;;14.91;94.42
39265;BME280;42646;51.910;7.724;2023-07-13T05:11:05;100907.69;;;14.97;94.14
39265;BME280;42646;51.910;7.724;2023-07-13T05:13:35;100915.91;;;15.04;94.32
39265;BME280;42646;51.910;7.724;2023-07-13T05:16:05;100908.75;;;15.12;93.91
39265;BME280;42646;51.910;7.724;2023-07-13T05:18:34;100908.78;;;15.20;93.36
39265;BME280;42646;51.910;7.724;2023-07-13T05:21:04;100910.81;;;15.27;93.02
39265;BME280;42646;51.910;7.724;2023-07-13T05:23:33;100912.84;;;15.33;93.11
39265;BME280;42646;51.910;7.724;2023-07-13T05:26:28;100916.53;;;15.40;93.06
39265;BME280;42646;51.910;7.724;2023-07-13T05:28:58;100923.94;;;15.46;92.67
39265;BME280;42646;51.910;7.724;2023-07-13T05:31:26;100929.34;;;15.54;92.88
39265;BME280;42646;51.910;7.724;2023-07-13T05:33:54;100930.22;;;15.63;93.34
39265;BME280;42646;51.910;7.724;2023-07-13T05:36:22;100920.19;;;15.73;93.18
39265;BME280;42646;51.910;7.724;2023-07-13T05:39:14;100933.75;;;15.88;92.59
39265;BME280;42646;51.910;7.724;2023-07-13T05:41:42;100941.00;;;15.95;92.25
39265;BME280;42646;51.910;7.724;2023-07-13T05:44:12;100937.47;;;16.03;91.57
39265;BME280;42646;51.910;7.724;2023-07-13T05:46:41;100939.50;;;16.09;91.18
39265;BME280;42646;51.910;7.724;2023-07-13T05:49:09;100946.69;;;16.17;91.10
39265;BME280;42646;51.910;7.724;2023-07-13T05:51:37;100937.81;;;16.24;90.98
39265;BME280;42646;51.910;7.724;2023-07-13T05:54:07;100938.66;;;16.33;90.65
39265;BME280;42646;51.910;7.724;2023-07-13T05:56:36;100940.47;;;16.41;90.36
39265;BME280;42646;51.910;7.724;2023-07-13T05:59:08;100943.00;;;16.50;90.27
39265;BME280;42646;51.910;7.724;2023-07-13T06:01:42;100943.16;;;16.57;89.82
39265;BME280;42646;51.910;7.724;2023-07-13T06:04:10;100952.91;;;16.66;89.42
39265;BME280;42646;51.910;7.724;2023-07-13T06:07:02;100956.94;;;16.78;88.98
39265;BME280;42646;51.910;7.724;2023-07-13T06:09:30;100953.56;;;16.85;89.00
39265;BME280;42646;51.910;7.724;2023-07-13T06:11:57;100956.88;;;16.95;88.52
39265;BME280;42646;51.910;7.724;2023-07-13T06:14:26;100946.75;;;17.05;87.91
39265;BME280;42646;51.910;7.724;2023-07-13T06:16:55;100948.75;;;17.11;87.44
39265;BME280;42646;51.910;7.724;2023-07-13T06:19:24;100941.50;;;17.20;87.02
39265;BME280;42646;51.910;7.724;2023-07-13T06:22:17;100948.50;;;17.29;87.34
39265;BME280;42646;51.910;7.724;2023-07-13T06:24:48;100954.72;;;17.38;86.81
39265;BME280;42646;51.910;7.724;2023-07-13T06:27:16;100948.91;;;17.49;86.13
39265;BME280;42646;51.910;7.724;2023-07-13T06:29:44;100950.38;;;17.59;85.52
39265;BME280;42646;51.910;7.724;2023-07-13T06:32:13;100948.00;;;17.65;85.83
39265;BME280;42646;51.910;7.724;2023-07-13T06:34:42;100948.97;;;17.72;85.26
39265;BME280;42646;51.910;7.724;2023-07-13T06:37:11;100964.91;;;17.81;85.09
39265;BME280;42646;51.910;7.724;2023-07-13T06:39:39;100963.81;;;17.91;84.39
39265;BME280;42646;51.910;7.724;2023-07-13T06:42:08;100967.13;;;18.01;83.77
39265;BME280;42646;51.910;7.724;2023-07-13T06:44:40;100969.09;;;18.07;83.72
39265;BME280;42646;51.910;7.724;2023-07-13T06:47:09;100969.41;;;18.12;83.74
39265;BME280;42646;51.910;7.724;2023-07-13T06:49:39;100975.09;;;18.17;83.63
39265;BME280;42646;51.910;7.724;2023-07-13T06:52:07;100983.09;;;18.25;83.96
39265;BME280;42646;51.910;7.724;2023-07-13T06:54:36;100976.44;;;18.36;83.31
39265;BME280;42646;51.910;7.724;2023-07-13T06:57:05;100975.38;;;18.45;83.52
39265;BME280;42646;51.910;7.724;2023-07-13T06:59:33;100982.28;;;18.62;83.32
39265;BME280;42646;51.910;7.724;2023-07-13T07:02:01;100984.19;;;18.77;82.93
39265;BME280;42646;51.910;7.724;2023-07-13T07:04:28;100982.81;;;18.81;82.46
39265;BME280;42646;51.910;7.724;2023-07-13T07:06:58;100986.34;;;18.96;81.45
39265;BME280;42646;51.910;7.724;2023-07-13T07:09:26;100986.63;;;19.01;81.13
39265;BME280;42646;51.910;7.724;2023-07-13T07:11:56;100985.06;;;19.07;81.26
39265;BME280;42646;51.910;7.724;2023-07-13T07:14:30;100989.34;;;19.16;81.65
39265;BME280;42646;51.910;7.724;2023-07-13T07:16:58;100989.53;;;19.29;81.08
39265;BME280;42646;51.910;7.724;2023-07-13T07:19:27;100983.81;;;19.39;80.56
39265;BME280;42646;51.910;7.724;2023-07-13T07:21:55;100983.19;;;19.52;79.46
39265;BME280;42646;51.910;7.724;2023-07-13T07:24:24;100995.56;;;19.61;78.87
39265;BME280;42646;51.910;7.724;2023-07-13T07:26:52;100993.88;;;19.74;80.22
39265;BME280;42646;51.910;7.724;2023-07-13T07:29:23;100990.47;;;19.87;79.01
39265;BME280;42646;51.910;7.724;2023-07-13T07:31:58;100993.25;;;19.94;77.71
39265;BME280;42646;51.910;7.724;2023-07-13T07:34:32;100994.72;;;19.96;76.82
39265;BME280;42646;51.910;7.724;2023-07-13T07:37:00;100999.47;;;19.94;76.54
39265;BME280;42646;51.910;7.724;2023-07-13T07:39:32;101002.81;;;19.96;76.03
39265;BME280;42646;51.910;7.724;2023-07-13T07:42:00;101001.16;;;19.95;74.22
39265;BME280;42646;51.910;7.724;2023-07-13T07:44:28;101001.44;;;19.86;73.95
39265;BME280;42646;51.910;7.724;2023-07-13T07:46:56;101000.09;;;19.75;74.00
39265;BME280;42646;51.910;7.724;2023-07-13T07:49:23;101001.50;;;19.71;73.82
39265;BME280;42646;51.910;7.724;2023-07-13T07:51:52;101002.91;;;19.67;75.29
39265;BME280;42646;51.910;7.724;2023-07-13T07:54:20;101011.91;;;19.74;75.45
39265;BME280;42646;51.910;7.724;2023-07-13T07:57:09;100998.56;;;19.87;76.27
39265;BME280;42646;51.910;7.724;2023-07-13T07:59:43;101001.69;;;20.06;76.45
39265;BME280;42646;51.910;7.724;2023-07-13T08:02:14;100993.50;;;20.20;74.49
39265;BME280;42646;51.910;7.724;2023-07-13T08:05:01;100994.66;;;20.33;75.15
39265;BME280;42646;51.910;7.724;2023-07-13T08:07:32;100995.47;;;20.48;74.32
39265;BME280;42646;51.910;7.724;2023-07-13T08:10:00;100996.41;;;20.62;73.15
39265;BME280;42646;51.910;7.724;2023-07-13T08:12:29;100997.72;;;20.72;72.24
39265;BME280;42646;51.910;7.724;2023-07-13T08:15:00;100999.28;;;20.82;72.59
39265;BME280;42646;51.910;7.724;2023-07-13T08:17:28;100989.75;;;20.92;72.50
39265;BME280;42646;51.910;7.724;2023-07-13T08:19:57;100999.84;;;21.05;71.23
39265;BME280;42646;51.910;7.724;2023-07-13T08:22:49;100997.56;;;21.08;70.70
39265;BME280;42646;51.910;7.724;2023-07-13T08:25:17;101000.50;;;21.14;70.00
39265;BME280;42646;51.910;7.724;2023-07-13T08:27:46;100999.47;;;21.15;70.40
39265;BME280;42646;51.910;7.724;2023-07-13T08:30:15;100988.06;;;21.19;69.71
39265;BME280;42646;51.910;7.724;2023-07-13T08:32:44;100995.59;;;21.24;69.50
39265;BME280;42646;51.910;7.724;2023-07-13T08:35:12;100993.50;;;21.26;68.87
39265;BME280;42646;51.910;7.724;2023-07-13T08:37:42;100996.47;;;21.31;68.95
39265;BME280;42646;51.910;7.724;2023-07-13T08:40:11;100993.19;;;21.36;69.71
39265;BME280;42646;51.910;7.724;2023-07-13T08:42:42;100992.59;;;21.47;68.32
39265;BME280;42646;51.910;7.724;2023-07-13T08:45:19;100985.56;;;21.52;68.87
39265;BME280;42646;51.910;7.724;2023-07-13T08:47:52;100997.66;;;21.63;68.40
39265;BME280;42646;51.910;7.724;2023-07-13T08:50:25;100994.78;;;21.71;67.80
39265;BME280;42646;51.910;7.724;2023-07-13T08:52:56;100991.03;;;21.79;68.34
39265;BME280;42646;51.910;7.724;2023-07-13T08:55:31;100988.59;;;21.91;67.59
39265;BME280;42646;51.910;7.724;2023-07-13T08:58:05;100989.03;;;22.01;67.68
39265;BME280;42646;51.910;7.724;2023-07-13T09:00:45;100988.88;;;22.16;67.64
39265;BME280;42646;51.910;7.724;2023-07-13T09:03:20;100990.97;;;22.27;67.29
39265;BME280;42646;51.910;7.724;2023-07-13T09:05:53;100990.97;;;22.40;66.32
39265;BME280;42646;51.910;7.724;2023-07-13T09:08:38;100996.41;;;22.47;65.05
39265;BME280;42646;51.910;7.724;2023-07-13T09:11:20;100992.84;;;22.53;64.14
39265;BME280;42646;51.910;7.724;2023-07-13T09:13:56;100986.19;;;22.55;63.74
39265;BME280;42646;51.910;7.724;2023-07-13T09:16:31;100986.41;;;22.60;64.59
39265;BME280;42646;51.910;7.724;2023-07-13T09:19:02;100994.94;;;22.77;63.40
39265;BME280;42646;51.910;7.724;2023-07-13T09:21:34;100991.81;;;22.80;63.70
39265;BME280;42646;51.910;7.724;2023-07-13T09:24:28;100993.88;;;22.85;63.75
39265;BME280;42646;51.910;7.724;2023-07-13T09:26:57;100985.13;;;22.96;63.59
39265;BME280;42646;51.910;7.724;2023-07-13T09:29:28;100989.50;;;22.97;62.68
39265;BME280;42646;51.910;7.724;2023-07-13T09:32:02;100983.66;;;23.00;62.84
39265;BME280;42646;51.910;7.724;2023-07-13T09:34:32;100988.63;;;23.16;61.28
39265;BME280;42646;51.910;7.724;2023-07-13T09:37:00;100988.44;;;23.11;61.85
39265;BME280;42646;51.910;7.724;2023-07-13T09:39:30;100989.69;;;23.15;60.76
39265;BME280;42646;51.910;7.724;2023-07-13T09:42:06;100994.28;;;23.15;60.28
39265;BME280;42646;51.910;7.724;2023-07-13T09:44:37;100996.56;;;23.11;60.41
39265;BME280;42646;51.910;7.724;2023-07-13T09:47:16;100996.78;;;23.16;59.67
39265;BME280;42646;51.910;7.724;2023-07-13T09:49:45;101003.88;;;23.11;59.83
39265;BME280;42646;51.910;7.724;2023-07-13T09:52:15;100985.50;;;23.06;59.65
39265;BME280;42646;51.910;7.724;2023-07-13T09:54:45;100987.63;;;23.04;59.65
39265;BME280;42646;51.910;7.724;2023-07-13T09:57:16;100992.63;;;23.07;60.89
39265;BME280;42646;51.910;7.724;2023-07-13T09:59:46;100991.78;;;23.13;61.30
39265;BME280;42646;51.910;7.724;2023-07-13T10:02:26;101002.84;;;23.18;60.06
39265;BME280;42646;51.910;7.724;2023-07-13T10:04:57;100995.53;;;23.06;59.73
39265;BME280;42646;51.910;7.724;2023-07-13T10:07:26;101003.69;;;22.99;60.78
39265;BME280;42646;51.910;7.724;2023-07-13T10:10:00;101013.50;;;22.93;60.99
39265;BME280;42646;51.910;7.724;2023-07-13T10:12:30;101013.31;;;22.88;60.34
39265;BME280;42646;51.910;7.724;2023-07-13T10:15:12;101006.19;;;22.81;59.68
39265;BME280;42646;51.910;7.724;2023-07-13T10:17:53;101003.50;;;22.74;59.73
39265;BME280;42646;51.910;7.724;2023-07-13T10:20:22;101007.47;;;22.78;60.14
39265;BME280;42646;51.910;7.724;2023-07-13T10:22:56;101007.03;;;22.81;59.79
39265;BME280;42646;51.910;7.724;2023-07-13T10:25:28;100998.69;;;22.76;60.60
39265;BME280;42646;51.910;7.724;2023-07-13T10:28:03;101004.94;;;22.77;60.65
39265;BME280;42646;51.910;7.724;2023-07-13T10:30:35;101002.84;;;22.85;60.10
39265;BME280;42646;51.910;7.724;2023-07-13T10:33:12;101009.97;;;22.73;59.66
39265;BME280;42646;51.910;7.724;2023-07-13T10:35:42;101007.25;;;22.80;58.28
39265;BME280;42646;51.910;7.724;2023-07-13T10:38:14;101017.25;;;22.79;57.50
39265;BME280;42646;51.910;7.724;2023-07-13T10:40:48;101006.84;;;22.83;60.07
39265;BME280;42646;51.910;7.724;2023-07-13T10:43:23;101016.44;;;22.92;59.45
39265;BME280;42646;51.910;7.724;2023-07-13T10:45:55;101023.13;;;22.96;58.90
39265;BME280;42646;51.910;7.724;2023-07-13T10:48:25;101021.63;;;23.00;59.16
39265;BME280;42646;51.910;7.724;2023-07-13T10:50:55;101020.63;;;23.01;58.02
39265;BME280;42646;51.910;7.724;2023-07-13T10:53:29;101018.31;;;22.91;58.86
39265;BME280;42646;51.910;7.724;2023-07-13T10:56:00;101025.41;;;22.92;58.87
39265;BME280;42646;51.910;7.724;2023-07-13T10:58:34;101014.78;;;22.91;59.38
39265;BME280;42646;51.910;7.724;2023-07-13T11:01:07;101011.22;;;22.97;61.80
39265;BME280;42646;51.910;7.724;2023-07-13T11:03:47;101021.22;;;23.10;60.91
39265;BME280;42646;51.910;7.724;2023-07-13T11:06:32;101017.22;;;23.26;59.70
39265;BME280;42646;51.910;7.724;2023-07-13T11:09:18;101017.44;;;23.31;58.66
39265;BME280;42646;51.910;7.724;2023-07-13T11:11:47;101014.47;;;23.39;58.69
39265;BME280;42646;51.910;7.724;2023-07-13T11:14:34;101020.47;;;23.48;57.51
39265;BME280;42646;51.910;7.724;2023-07-13T11:17:24;101018.75;;;23.60;58.11
39265;BME280;42646;51.910;7.724;2023-07-13T11:20:20;101017.28;;;23.70;56.81
39265;BME280;42646;51.910;7.724;2023-07-13T11:22:50;101014.78;;;23.69;56.35
39265;BME280;42646;51.910;7.724;2023-07-13T11:25:27;101021.50;;;23.66;56.22
39265;BME280;42646;51.910;7.724;2023-07-13T11:28:17;101009.59;;;23.67;55.90
39265;BME280;42646;51.910;7.724;2023-07-13T11:30:49;101020.25;;;23.62;55.96
39265;BME280;42646;51.910;7.724;2023-07-13T11:33:20;101004.78;;;23.63;54.64
39265;BME280;42646;51.910;7.724;2023-07-13T11:36:00;101006.22;;;23.59;54.75
39265;BME280;42646;51.910;7.724;2023-07-13T11:38:32;101003.31;;;23.60;55.35
39265;BME280;42646;51.910;7.724;2023-07-13T11:41:03;101006.00;;;23.74;54.46
39265;BME280;42646;51.910;7.724;2023-07-13T11:43:31;100996.56;;;23.76;54.40
39265;BME280;42646;51.910;7.724;2023-07-13T11:46:15;100998.78;;;23.92;54.34
39265;BME280;42646;51.910;7.724;2023-07-13T11:48:44;100998.72;;;24.06;53.21
39265;BME280;42646;51.910;7.724;2023-07-13T11:51:20;101002.44;;;24.11;52.66
39265;BME280;42646;51.910;7.724;2023-07-13T11:53:50;100992.22;;;24.07;52.71
39265;BME280;42646;51.910;7.724;2023-07-13T11:56:23;100994.75;;;24.08;54.07
39265;BME280;42646;51.910;7.724;2023-07-13T11:58:55;101003.63;;;24.22;54.54
39265;BME280;42646;51.910;7.724;2023-07-13T12:01:30;101002.53;;;24.30;54.17
39265;BME280;42646;51.910;7.724;2023-07-13T12:04:00;101001.66;;;24.36;53.57
39265;BME280;42646;51.910;7.724;2023-07-13T12:06:33;101004.44;;;24.54;50.84
39265;BME280;42646;51.910;7.724;2023-07-13T12:09:11;100996.97;;;24.49;51.75
39265;BME280;42646;51.910;7.724;2023-07-13T12:11:43;100994.28;;;24.43;52.15
39265;BME280;42646;51.910;7.724;2023-07-13T12:14:35;101000.78;;;24.42;52.10
39265;BME280;42646;51.910;7.724;2023-07-13T12:17:09;100993.03;;;24.45;51.99
39265;BME280;42646;51.910;7.724;2023-07-13T12:19:38;101005.16;;;24.43;51.25
39265;BME280;42646;51.910;7.724;2023-07-13T12:22:12;100999.56;;;24.38;49.58
39265;BME280;42646;51.910;7.724;2023-07-13T12:24:41;100997.91;;;24.30;49.50
39265;BME280;42646;51.910;7.724;2023-07-13T12:27:19;101004.47;;;24.22;50.71
39265;BME280;42646;51.910;7.724;2023-07-13T12:29:52;101008.00;;;24.23;50.41
39265;BME280;42646;51.910;7.724;2023-07-13T12:32:21;100996.06;;;24.24;50.05
39265;BME280;42646;51.910;7.724;2023-07-13T12:34:53;101007.34;;;24.28;49.20
39265;BME280;42646;51.910;7.724;2023-07-13T12:37:24;101007.66;;;24.13;49.57
39265;BME280;42646;51.910;7.724;2023-07-13T12:39:52;101015.84;;;24.06;49.91
39265;BME280;42646;51.910;7.724;2023-07-13T12:42:24;101010.06;;;23.96;49.51
39265;BME280;42646;51.910;7.724;2023-07-13T12:44:54;101010.13;;;23.83;49.98
39265;BME280;42646;51.910;7.724;2023-07-13T12:47:24;101023.16;;;23.67;50.59
39265;BME280;42646;51.910;7.724;2023-07-13T12:49:55;101028.59;;;23.61;50.79
39265;BME280;42646;51.910;7.724;2023-07-13T12:52:29;101021.09;;;23.56;50.68
39265;BME280;42646;51.910;7.724;2023-07-13T12:55:01;101023.38;;;23.53;50.24
39265;BME280;42646;51.910;7.724;2023-07-13T12:57:38;101025.28;;;23.52;51.52
39265;BME280;42646;51.910;7.724;2023-07-13T13:00:20;101017.75;;;23.61;51.32
39265;BME280;42646;51.910;7.724;2023-07-13T13:02:49;101023.16;;;23.61;51.24
39265;BME280;42646;51.910;7.724;2023-07-13T13:05:20;101018.16;;;23.64;51.21
39265;BME280;42646;51.910;7.724;2023-07-13T13:07:51;101035.28;;;23.58;51.36
39265;BME280;42646;51.910;7.724;2023-07-13T13:10:20;101054.53;;;23.50;54.15
39265;BME280;42646;51.910;7.724;2023-07-13T13:12:50;101056.28;;;23.25;57.71
39265;BME280;42646;51.910;7.724;2023-07-13T13:15:19;101053.59;;;22.98;60.12